Time;durP1;ratioP1;P1;durP2;ratioP2;P2;SDS_P1;SDS_P2;PMS_P1;PMS_P2;Temp;Humidity;BMP_temperature;BMP_pressure;BME280_temperature;BME280_humidity;BME280_pressure;Samples;Min_cycle;Max_cycle;Signal;HPM_P1;HPM_P2
2023/07/27 00:02:09;;;;;;;14.38;8.68;;;;;;;;;;5054602;28;20049;-77
2023/07/27 00:04:35;;;;;;;14.68;8.70;;;;;;;;;;5053585;28;20049;-78
2023/07/27 00:07:01;;;;;;;14.45;9.52;;;;;;;;;;5054104;28;20059;-78
2023/07/27 00:09:27;;;;;;;18.30;9.88;;;;;;;;;;5054174;28;20044;-78
2023/07/27 00:11:55;;;;;;;16.33;9.68;;;;;;;;;;5054168;28;20048;-78
2023/07/27 00:14:21;;;;;;;16.33;9.80;;;;;;;;;;5052276;28;20491;-77
2023/07/27 00:16:47;;;;;;;15.60;9.82;;;;;;;;;;5054464;28;20124;-76
2023/07/27 00:19:13;;;;;;;15.07;10.10;;;;;;;;;;5054770;28;20041;-77
2023/07/27 00:21:39;;;;;;;15.73;9.27;;;;;;;;;;5054275;28;20052;-77
2023/07/27 00:24:05;;;;;;;12.98;8.98;;;;;;;;;;5053229;28;20033;-77
2023/07/27 00:26:31;;;;;;;13.98;9.93;;;;;;;;;;5054054;28;20499;-78
2023/07/27 00:28:57;;;;;;;14.73;9.77;;;;;;;;;;5053524;28;20051;-77
2023/07/27 00:31:23;;;;;;;15.00;9.32;;;;;;;;;;5054614;28;20040;-76
2023/07/27 00:33:50;;;;;;;15.23;9.57;;;;;;;;;;5054230;28;20057;-77
2023/07/27 00:36:16;;;;;;;14.07;9.30;;;;;;;;;;5055553;28;20044;-77
2023/07/27 00:38:42;;;;;;;13.23;9.00;;;;;;;;;;5056774;28;20128;-78
2023/07/27 00:41:08;;;;;;;13.63;8.43;;;;;;;;;;5054154;28;20060;-78
2023/07/27 00:43:34;;;;;;;14.63;8.73;;;;;;;;;;5054366;28;20059;-78
2023/07/27 00:46:00;;;;;;;14.20;8.60;;;;;;;;;;5053834;28;20056;-78
2023/07/27 00:48:27;;;;;;;12.63;8.35;;;;;;;;;;5054050;28;20040;-77
2023/07/27 00:50:53;;;;;;;14.73;8.88;;;;;;;;;;5053987;28;20049;-78
2023/07/27 00:53:20;;;;;;;13.43;8.52;;;;;;;;;;5053413;28;20514;-78
2023/07/27 00:55:46;;;;;;;11.40;8.10;;;;;;;;;;5053328;28;20052;-77
2023/07/27 00:58:13;;;;;;;14.05;8.23;;;;;;;;;;5054332;28;20037;-77
2023/07/27 01:00:42;;;;;;;11.63;8.18;;;;;;;;;;5054229;28;20041;-76
2023/07/27 01:03:09;;;;;;;14.50;9.18;;;;;;;;;;5036167;28;20053;-77
2023/07/27 01:05:36;;;;;;;13.10;9.10;;;;;;;;;;5053902;28;20511;-76
2023/07/27 01:08:02;;;;;;;11.00;8.00;;;;;;;;;;5053712;28;20049;-77
2023/07/27 01:10:51;;;;;;;12.90;8.55;;;;;;;;;;5053071;28;20048;-79
2023/07/27 01:13:20;;;;;;;11.50;8.07;;;;;;;;;;5011334;28;20045;-77
2023/07/27 01:15:49;;;;;;;12.55;9.10;;;;;;;;;;5011832;28;20057;-77
2023/07/27 01:18:45;;;;;;;12.07;8.57;;;;;;;;;;5011928;28;20518;-77
2023/07/27 01:21:14;;;;;;;11.48;8.18;;;;;;;;;;5000043;28;20050;-77
2023/07/27 01:24:00;;;;;;;15.30;8.63;;;;;;;;;;5011425;28;20053;-77
2023/07/27 01:26:36;;;;;;;13.10;8.00;;;;;;;;;;5012124;28;20038;-76
2023/07/27 01:29:05;;;;;;;12.35;8.02;;;;;;;;;;5015737;28;20049;-77
2023/07/27 01:31:41;;;;;;;11.25;7.88;;;;;;;;;;5015846;28;20061;-76
2023/07/27 01:34:09;;;;;;;14.18;7.95;;;;;;;;;;4998751;28;20057;-78
2023/07/27 01:36:38;;;;;;;11.43;7.70;;;;;;;;;;5016027;28;20046;-78
2023/07/27 01:39:06;;;;;;;11.70;7.50;;;;;;;;;;5014722;28;20082;-77
2023/07/27 01:41:33;;;;;;;10.43;7.07;;;;;;;;;;5015826;28;20516;-77
2023/07/27 01:44:00;;;;;;;10.50;7.05;;;;;;;;;;5014453;28;20050;-77
2023/07/27 01:46:27;;;;;;;11.30;7.20;;;;;;;;;;5015335;28;20057;-78
2023/07/27 01:48:55;;;;;;;12.20;8.00;;;;;;;;;;5015451;28;20133;-78
2023/07/27 01:51:22;;;;;;;11.00;7.07;;;;;;;;;;5055605;28;20132;-78
2023/07/27 01:53:48;;;;;;;11.43;7.38;;;;;;;;;;5055781;28;20678;-78
2023/07/27 01:56:15;;;;;;;11.88;7.90;;;;;;;;;;5057312;28;20064;-78
2023/07/27 01:58:42;;;;;;;11.57;7.45;;;;;;;;;;5057145;28;20060;-76
2023/07/27 02:01:08;;;;;;;10.95;6.72;;;;;;;;;;5039255;28;20052;-78
2023/07/27 02:03:36;;;;;;;12.02;6.97;;;;;;;;;;5052907;28;20041;-78
2023/07/27 02:06:02;;;;;;;11.30;7.28;;;;;;;;;;5039317;28;20574;-78
2023/07/27 02:08:28;;;;;;;11.38;7.10;;;;;;;;;;5055970;28;20487;-77
2023/07/27 02:10:56;;;;;;;11.57;7.32;;;;;;;;;;5056828;28;20442;-77
2023/07/27 02:13:25;;;;;;;14.00;7.50;;;;;;;;;;5055276;28;20053;-77
2023/07/27 02:15:59;;;;;;;12.73;6.82;;;;;;;;;;5056947;28;20407;-76
2023/07/27 02:18:27;;;;;;;9.73;6.85;;;;;;;;;;5057182;28;20041;-76
2023/07/27 02:20:55;;;;;;;12.88;6.90;;;;;;;;;;5056972;28;20041;-78
2023/07/27 02:23:21;;;;;;;10.07;7.53;;;;;;;;;;5055949;28;20052;-77
2023/07/27 02:25:47;;;;;;;10.55;6.93;;;;;;;;;;5056949;28;20041;-77
2023/07/27 02:28:13;;;;;;;10.88;7.13;;;;;;;;;;5038905;28;20041;-77
2023/07/27 02:30:39;;;;;;;11.23;7.05;;;;;;;;;;5038539;28;20048;-76
2023/07/27 02:33:06;;;;;;;10.43;6.75;;;;;;;;;;5055721;28;20552;-76
2023/07/27 02:35:32;;;;;;;10.98;7.63;;;;;;;;;;5056586;28;20045;-77
2023/07/27 02:37:58;;;;;;;11.45;7.50;;;;;;;;;;5054999;28;20083;-77
2023/07/27 02:40:24;;;;;;;10.15;6.53;;;;;;;;;;5056629;28;20540;-76
2023/07/27 02:42:50;;;;;;;10.70;6.90;;;;;;;;;;5038585;28;20049;-77
2023/07/27 02:45:17;;;;;;;12.13;7.75;;;;;;;;;;5055967;28;20411;-77
2023/07/27 02:47:43;;;;;;;9.55;6.80;;;;;;;;;;5056564;28;20048;-77
2023/07/27 02:50:09;;;;;;;13.23;7.25;;;;;;;;;;5056438;28;20052;-77
2023/07/27 02:52:35;;;;;;;10.52;6.88;;;;;;;;;;5055172;28;20098;-77
2023/07/27 02:55:01;;;;;;;10.48;7.15;;;;;;;;;;5056253;28;20130;-76
2023/07/27 02:57:27;;;;;;;14.43;7.25;;;;;;;;;;5055613;28;20504;-77
2023/07/27 02:59:54;;;;;;;12.85;7.15;;;;;;;;;;5056816;28;20041;-77
2023/07/27 03:02:20;;;;;;;12.32;7.28;;;;;;;;;;5055151;28;20044;-77
2023/07/27 03:04:46;;;;;;;11.57;7.20;;;;;;;;;;5054327;28;20045;-78
2023/07/27 03:07:12;;;;;;;12.85;7.75;;;;;;;;;;5051216;28;20512;-78
2023/07/27 03:09:38;;;;;;;12.63;8.07;;;;;;;;;;5036649;28;20056;-78
2023/07/27 03:12:04;;;;;;;12.40;7.25;;;;;;;;;;5034818;28;20459;-78
2023/07/27 03:14:30;;;;;;;11.38;7.22;;;;;;;;;;5035803;28;20046;-78
2023/07/27 03:16:56;;;;;;;14.82;7.50;;;;;;;;;;5036135;28;20047;-78
2023/07/27 03:19:22;;;;;;;12.45;7.43;;;;;;;;;;5034687;28;20560;-78
2023/07/27 03:21:48;;;;;;;11.80;7.88;;;;;;;;;;5054892;28;20049;-78
2023/07/27 03:24:16;;;;;;;13.70;7.40;;;;;;;;;;5055611;28;20102;-78
2023/07/27 03:26:43;;;;;;;11.63;7.30;;;;;;;;;;5037549;28;20124;-78
2023/07/27 03:29:09;;;;;;;12.40;7.43;;;;;;;;;;5053167;28;20558;-78
2023/07/27 03:31:35;;;;;;;9.93;6.78;;;;;;;;;;5053657;28;20036;-78
2023/07/27 03:34:01;;;;;;;11.38;8.00;;;;;;;;;;5038304;28;20132;-78
2023/07/27 03:36:27;;;;;;;15.02;8.55;;;;;;;;;;5038334;28;20049;-78
2023/07/27 03:38:53;;;;;;;12.38;8.02;;;;;;;;;;5055696;28;20041;-77
2023/07/27 03:41:19;;;;;;;11.68;8.65;;;;;;;;;;5055516;28;20044;-78
2023/07/27 03:43:45;;;;;;;14.68;8.18;;;;;;;;;;5054848;28;20491;-78
2023/07/27 03:46:12;;;;;;;11.60;7.85;;;;;;;;;;5053612;28;20063;-77
2023/07/27 03:48:38;;;;;;;13.75;8.60;;;;;;;;;;5053937;28;20049;-77
2023/07/27 03:51:04;;;;;;;13.10;8.18;;;;;;;;;;5054616;28;20056;-77
2023/07/27 03:53:30;;;;;;;14.05;7.88;;;;;;;;;;5036699;28;20076;-77
2023/07/27 03:55:56;;;;;;;12.68;8.10;;;;;;;;;;5054019;28;20094;-77
2023/07/27 03:58:23;;;;;;;15.85;9.00;;;;;;;;;;5052967;28;20380;-78
2023/07/27 04:00:49;;;;;;;11.68;7.88;;;;;;;;;;5041873;28;20407;-78
2023/07/27 04:03:15;;;;;;;16.10;8.13;;;;;;;;;;5050032;28;20128;-78
2023/07/27 04:05:41;;;;;;;14.30;8.85;;;;;;;;;;5035104;28;20044;-77
2023/07/27 04:08:07;;;;;;;13.35;8.40;;;;;;;;;;5053683;28;20403;-78
2023/07/27 04:10:34;;;;;;;11.65;8.52;;;;;;;;;;5053757;28;20041;-78
2023/07/27 04:13:00;;;;;;;10.73;7.43;;;;;;;;;;5053625;28;20399;-78
2023/07/27 04:15:26;;;;;;;13.75;8.75;;;;;;;;;;5052445;28;20051;-78
2023/07/27 04:17:52;;;;;;;14.00;9.00;;;;;;;;;;5035361;28;20056;-78
2023/07/27 04:20:18;;;;;;;15.52;8.73;;;;;;;;;;5053161;28;21016;-78
2023/07/27 04:22:44;;;;;;;12.77;8.82;;;;;;;;;;5053752;28;20041;-78
2023/07/27 04:25:10;;;;;;;13.13;8.27;;;;;;;;;;5054072;28;20454;-78
2023/07/27 04:27:36;;;;;;;12.77;9.15;;;;;;;;;;5053458;28;20052;-78
2023/07/27 04:30:02;;;;;;;15.25;8.90;;;;;;;;;;5051118;28;20462;-78
2023/07/27 04:32:28;;;;;;;15.20;9.75;;;;;;;;;;5052992;28;20106;-77
2023/07/27 04:34:54;;;;;;;12.18;9.13;;;;;;;;;;5054286;28;20084;-78
2023/07/27 04:37:21;;;;;;;12.88;9.10;;;;;;;;;;5053378;28;20040;-78
2023/07/27 04:39:47;;;;;;;12.90;8.80;;;;;;;;;;5053128;28;20083;-77
2023/07/27 04:42:13;;;;;;;13.68;9.30;;;;;;;;;;5053168;28;20425;-77
2023/07/27 04:44:40;;;;;;;12.82;8.10;;;;;;;;;;5034794;28;20094;-78
2023/07/27 04:47:06;;;;;;;14.68;9.15;;;;;;;;;;5052398;28;20699;-78
2023/07/27 04:49:32;;;;;;;13.23;9.30;;;;;;;;;;5053651;28;20045;-77
2023/07/27 04:51:58;;;;;;;12.73;8.57;;;;;;;;;;5052986;28;20051;-77
2023/07/27 04:54:24;;;;;;;12.50;8.95;;;;;;;;;;5052139;28;20060;-77
2023/07/27 04:56:50;;;;;;;14.40;9.98;;;;;;;;;;5053237;28;20045;-77
2023/07/27 04:59:16;;;;;;;12.18;8.73;;;;;;;;;;5053041;28;20080;-78
2023/07/27 05:01:42;;;;;;;12.93;9.02;;;;;;;;;;5051949;28;20049;-77
2023/07/27 05:04:08;;;;;;;13.82;9.27;;;;;;;;;;5053424;28;20048;-78
2023/07/27 05:06:38;;;;;;;13.02;9.15;;;;;;;;;;5053179;28;20091;-77
2023/07/27 05:09:04;;;;;;;13.13;9.98;;;;;;;;;;5053017;28;20059;-78
2023/07/27 05:11:30;;;;;;;15.30;9.63;;;;;;;;;;5053501;28;20458;-78
2023/07/27 05:13:57;;;;;;;14.32;9.55;;;;;;;;;;5053073;28;20483;-78
2023/07/27 05:16:23;;;;;;;13.02;8.75;;;;;;;;;;5034801;28;20053;-80
2023/07/27 05:18:49;;;;;;;14.30;9.32;;;;;;;;;;5033278;28;20055;-78
2023/07/27 05:21:15;;;;;;;14.13;9.02;;;;;;;;;;5048128;28;20041;-78
2023/07/27 05:23:41;;;;;;;13.55;9.30;;;;;;;;;;5032857;28;20625;-78
2023/07/27 05:26:07;;;;;;;12.18;8.10;;;;;;;;;;5049266;28;20155;-78
2023/07/27 05:28:33;;;;;;;15.68;9.38;;;;;;;;;;5033143;28;20049;-78
2023/07/27 05:30:59;;;;;;;12.35;9.10;;;;;;;;;;5035100;28;20089;-78
2023/07/27 05:33:25;;;;;;;12.85;9.15;;;;;;;;;;5052483;28;20053;-78
2023/07/27 05:35:51;;;;;;;14.63;8.77;;;;;;;;;;5052185;28;20048;-77
2023/07/27 05:38:18;;;;;;;13.57;9.35;;;;;;;;;;5041386;28;20064;-78
2023/07/27 05:40:44;;;;;;;15.45;9.77;;;;;;;;;;5032806;28;20057;-77
2023/07/27 05:43:10;;;;;;;15.50;9.85;;;;;;;;;;5033078;28;20049;-78
2023/07/27 05:45:38;;;;;;;13.02;8.90;;;;;;;;;;5045485;28;20092;-78
2023/07/27 05:48:05;;;;;;;15.38;9.55;;;;;;;;;;5033535;28;20060;-78
2023/07/27 05:50:31;;;;;;;13.20;9.57;;;;;;;;;;5052182;28;20448;-78
2023/07/27 05:52:57;;;;;;;12.93;8.85;;;;;;;;;;5052631;28;20049;-77
2023/07/27 05:55:23;;;;;;;13.95;9.43;;;;;;;;;;5052192;28;20041;-77
2023/07/27 05:57:49;;;;;;;14.88;9.93;;;;;;;;;;5033585;28;20049;-77
2023/07/27 06:00:15;;;;;;;16.00;9.82;;;;;;;;;;5052012;28;20736;-77
2023/07/27 06:02:41;;;;;;;14.88;11.00;;;;;;;;;;5028478;28;20047;-77
2023/07/27 06:05:08;;;;;;;15.80;10.68;;;;;;;;;;5036698;28;20185;-77
2023/07/27 06:07:34;;;;;;;14.15;10.65;;;;;;;;;;5050986;28;20049;-77
2023/07/27 06:10:00;;;;;;;16.08;9.85;;;;;;;;;;5052179;28;20399;-77
2023/07/27 06:12:26;;;;;;;14.43;10.10;;;;;;;;;;5053202;28;20092;-77
2023/07/27 06:14:52;;;;;;;15.90;9.50;;;;;;;;;;5055948;28;20515;-77
2023/07/27 06:17:18;;;;;;;16.27;10.63;;;;;;;;;;5055757;28;20048;-77
2023/07/27 06:19:44;;;;;;;13.88;9.88;;;;;;;;;;5054819;28;20044;-78
2023/07/27 06:22:10;;;;;;;19.15;10.23;;;;;;;;;;5055463;28;20049;-77
2023/07/27 06:24:36;;;;;;;14.15;10.60;;;;;;;;;;5055979;28;20120;-79
2023/07/27 06:27:03;;;;;;;15.77;10.88;;;;;;;;;;5056043;28;20045;-79
2023/07/27 06:29:29;;;;;;;15.68;10.82;;;;;;;;;;5055866;28;20063;-77
2023/07/27 06:31:55;;;;;;;14.95;11.38;;;;;;;;;;5055983;28;20446;-77
2023/07/27 06:34:21;;;;;;;17.90;11.73;;;;;;;;;;5054751;28;20079;-77
2023/07/27 06:36:47;;;;;;;18.65;12.70;;;;;;;;;;5053918;28;20053;-77
2023/07/27 06:39:13;;;;;;;16.80;12.43;;;;;;;;;;5052796;28;20488;-77
2023/07/27 06:41:40;;;;;;;17.75;12.70;;;;;;;;;;5055737;28;20053;-78
2023/07/27 06:44:06;;;;;;;14.82;12.05;;;;;;;;;;5055593;28;20405;-77
2023/07/27 06:46:32;;;;;;;15.13;11.48;;;;;;;;;;5055851;28;20061;-78
2023/07/27 06:48:58;;;;;;;16.95;11.73;;;;;;;;;;5055710;28;20045;-78
2023/07/27 06:51:25;;;;;;;17.75;12.43;;;;;;;;;;5052335;28;20055;-77
2023/07/27 06:53:51;;;;;;;14.93;11.55;;;;;;;;;;5051403;28;20099;-78
2023/07/27 06:56:17;;;;;;;14.05;10.98;;;;;;;;;;5055121;28;20203;-77
2023/07/27 06:58:43;;;;;;;15.20;11.07;;;;;;;;;;5055122;28;20084;-77
2023/07/27 07:01:10;;;;;;;15.48;11.63;;;;;;;;;;5055368;28;20048;-77
2023/07/27 07:03:36;;;;;;;16.20;10.80;;;;;;;;;;5054100;28;20120;-78
2023/07/27 07:06:02;;;;;;;14.70;10.40;;;;;;;;;;5055330;28;20087;-78
2023/07/27 07:08:29;;;;;;;13.90;10.38;;;;;;;;;;5055284;28;20504;-77
2023/07/27 07:10:55;;;;;;;13.48;9.43;;;;;;;;;;5055338;28;20055;-78
2023/07/27 07:13:21;;;;;;;11.10;9.10;;;;;;;;;;5054816;28;20120;-78
2023/07/27 07:15:48;;;;;;;12.45;9.60;;;;;;;;;;5055368;28;20064;-78
2023/07/27 07:18:14;;;;;;;11.43;9.00;;;;;;;;;;5054735;28;20041;-78
2023/07/27 07:20:40;;;;;;;13.82;10.35;;;;;;;;;;5055678;28;20049;-77
2023/07/27 07:23:06;;;;;;;12.30;8.60;;;;;;;;;;5054055;28;20056;-77
2023/07/27 07:25:32;;;;;;;11.70;9.07;;;;;;;;;;5055474;28;20067;-78
2023/07/27 07:27:58;;;;;;;11.45;9.55;;;;;;;;;;5036952;28;20509;-78
2023/07/27 07:30:25;;;;;;;12.88;9.23;;;;;;;;;;5053758;28;20033;-78
2023/07/27 07:32:51;;;;;;;10.10;7.70;;;;;;;;;;5053553;28;20118;-78
2023/07/27 07:35:18;;;;;;;10.50;8.10;;;;;;;;;;5037026;28;20083;-78
2023/07/27 07:37:44;;;;;;;10.13;7.22;;;;;;;;;;5054549;28;20045;-78
2023/07/27 07:40:10;;;;;;;9.82;6.88;;;;;;;;;;5054890;28;20510;-78
2023/07/27 07:42:37;;;;;;;9.10;6.90;;;;;;;;;;5055972;28;20060;-79
2023/07/27 07:45:03;;;;;;;8.70;6.65;;;;;;;;;;5049892;28;20081;-77
2023/07/27 07:47:29;;;;;;;11.05;7.68;;;;;;;;;;5034798;28;20060;-77
2023/07/27 07:49:55;;;;;;;10.98;8.35;;;;;;;;;;5035056;28;20207;-78
2023/07/27 07:52:21;;;;;;;9.48;7.78;;;;;;;;;;5034913;28;20056;-78
2023/07/27 07:54:47;;;;;;;10.10;7.75;;;;;;;;;;5016987;28;20083;-78
2023/07/27 07:57:14;;;;;;;11.02;8.02;;;;;;;;;;5034710;28;20041;-78
2023/07/27 07:59:40;;;;;;;10.38;8.05;;;;;;;;;;5045051;28;20509;-78
2023/07/27 08:02:06;;;;;;;9.43;7.63;;;;;;;;;;5054252;28;20045;-78
2023/07/27 08:04:32;;;;;;;9.10;7.05;;;;;;;;;;5054181;28;20495;-78
2023/07/27 08:06:58;;;;;;;9.85;8.02;;;;;;;;;;5051811;28;20044;-77
2023/07/27 08:09:25;;;;;;;9.77;8.00;;;;;;;;;;5053892;28;20053;-77
2023/07/27 08:11:52;;;;;;;11.07;9.07;;;;;;;;;;5054436;28;20051;-78
2023/07/27 08:14:18;;;;;;;11.73;8.63;;;;;;;;;;5033739;28;20415;-78
2023/07/27 08:16:44;;;;;;;9.95;8.93;;;;;;;;;;5051087;28;20052;-78
2023/07/27 08:19:10;;;;;;;12.88;9.15;;;;;;;;;;5054603;28;20037;-78
2023/07/27 08:21:36;;;;;;;9.98;8.75;;;;;;;;;;5036213;28;20063;-78
2023/07/27 08:24:02;;;;;;;10.63;8.57;;;;;;;;;;5051048;28;20110;-78
2023/07/27 08:26:29;;;;;;;9.48;8.40;;;;;;;;;;5053298;28;20083;-77
2023/07/27 08:28:55;;;;;;;8.90;8.00;;;;;;;;;;5053149;28;20064;-79
2023/07/27 08:31:21;;;;;;;11.45;7.78;;;;;;;;;;5053537;28;20045;-78
2023/07/27 08:33:47;;;;;;;10.40;7.80;;;;;;;;;;5049383;28;20056;-78
2023/07/27 08:36:14;;;;;;;9.77;8.10;;;;;;;;;;5052837;28;20049;-78
2023/07/27 08:38:40;;;;;;;9.52;7.65;;;;;;;;;;5054353;28;20040;-78
2023/07/27 08:41:06;;;;;;;10.00;7.10;;;;;;;;;;5052851;28;20049;-79
2023/07/27 08:43:32;;;;;;;8.00;7.05;;;;;;;;;;5035527;28;20037;-78
2023/07/27 08:45:59;;;;;;;8.38;7.07;;;;;;;;;;5053149;28;20053;-78
2023/07/27 08:48:26;;;;;;;9.43;6.63;;;;;;;;;;5052953;28;20053;-78
2023/07/27 08:50:53;;;;;;;8.82;6.75;;;;;;;;;;5053219;28;20048;-79
2023/07/27 08:53:19;;;;;;;8.57;6.45;;;;;;;;;;5053905;28;20075;-79
2023/07/27 08:55:45;;;;;;;6.25;5.43;;;;;;;;;;5054963;28;20128;-77
2023/07/27 08:58:11;;;;;;;6.50;4.95;;;;;;;;;;5053583;28;20041;-78
2023/07/27 09:00:38;;;;;;;7.70;5.32;;;;;;;;;;5034209;28;20406;-77
2023/07/27 09:03:05;;;;;;;6.05;4.20;;;;;;;;;;5052693;28;20414;-78
2023/07/27 09:05:44;;;;;;;6.47;4.47;;;;;;;;;;5053414;28;20100;-78
2023/07/27 09:08:14;;;;;;;5.90;4.13;;;;;;;;;;5053398;28;20491;-77
2023/07/27 09:10:42;;;;;;;6.35;3.97;;;;;;;;;;5035465;28;20069;-77
2023/07/27 09:13:08;;;;;;;6.72;4.40;;;;;;;;;;5053779;28;20044;-77
2023/07/27 09:15:35;;;;;;;6.43;4.45;;;;;;;;;;5053703;28;20041;-78
2023/07/27 09:18:03;;;;;;;6.28;4.07;;;;;;;;;;5052683;28;20053;-77
2023/07/27 09:20:30;;;;;;;5.80;3.92;;;;;;;;;;5035868;28;20534;-78
2023/07/27 09:22:56;;;;;;;6.30;4.18;;;;;;;;;;5036148;28;20127;-78
2023/07/27 09:25:23;;;;;;;6.43;3.95;;;;;;;;;;5054374;28;20075;-78
2023/07/27 09:27:53;;;;;;;5.30;3.85;;;;;;;;;;5054286;28;20052;-78
2023/07/27 09:30:19;;;;;;;5.80;4.30;;;;;;;;;;5035952;28;20384;-79
2023/07/27 09:32:46;;;;;;;5.95;4.25;;;;;;;;;;5053683;28;20041;-79
2023/07/27 09:35:13;;;;;;;5.70;3.53;;;;;;;;;;5054438;28;20103;-79
2023/07/27 09:37:43;;;;;;;4.95;3.38;;;;;;;;;;5038320;28;20060;-76
2023/07/27 09:40:10;;;;;;;5.50;3.67;;;;;;;;;;5053655;28;20047;-77
2023/07/27 09:42:36;;;;;;;5.85;3.47;;;;;;;;;;5054121;28;20048;-78
2023/07/27 09:45:02;;;;;;;5.13;3.38;;;;;;;;;;5053518;28;20099;-78
2023/07/27 09:47:32;;;;;;;5.32;3.33;;;;;;;;;;5055731;28;20085;-78
2023/07/27 09:50:02;;;;;;;5.25;3.17;;;;;;;;;;5055324;28;20049;-78
2023/07/27 09:52:29;;;;;;;5.40;3.10;;;;;;;;;;5057244;28;20107;-78
2023/07/27 09:54:56;;;;;;;4.95;2.75;;;;;;;;;;5057536;28;20044;-78
2023/07/27 09:57:23;;;;;;;4.90;2.88;;;;;;;;;;5057118;28;20435;-78
2023/07/27 09:59:49;;;;;;;5.60;3.20;;;;;;;;;;5056818;28;20140;-79
2023/07/27 10:02:16;;;;;;;5.05;3.08;;;;;;;;;;5057716;28;20041;-78
2023/07/27 10:04:42;;;;;;;5.97;3.30;;;;;;;;;;5057033;28;20072;-79
2023/07/27 10:07:09;;;;;;;5.20;3.40;;;;;;;;;;5057351;28;20503;-76
2023/07/27 10:09:36;;;;;;;4.82;3.13;;;;;;;;;;5057563;28;20037;-78
2023/07/27 10:12:04;;;;;;;6.35;3.15;;;;;;;;;;5057508;28;20048;-77
2023/07/27 10:14:30;;;;;;;5.78;2.80;;;;;;;;;;5056452;28;20093;-79
2023/07/27 10:17:00;;;;;;;5.18;3.10;;;;;;;;;;5060132;28;20483;-79
2023/07/27 10:19:26;;;;;;;5.35;2.78;;;;;;;;;;5060594;28;20080;-79
2023/07/27 10:21:52;;;;;;;6.20;3.20;;;;;;;;;;5060933;28;20077;-78
2023/07/27 10:24:23;;;;;;;4.30;2.70;;;;;;;;;;5026343;28;20045;-79
2023/07/27 10:26:52;;;;;;;4.82;2.80;;;;;;;;;;5060464;28;20088;-78
2023/07/27 10:29:18;;;;;;;4.95;2.97;;;;;;;;;;5061030;28;20041;-79
2023/07/27 10:31:45;;;;;;;5.10;2.63;;;;;;;;;;5044075;28;20045;-79
2023/07/27 10:34:16;;;;;;;5.70;2.33;;;;;;;;;;5060016;28;20056;-79
2023/07/27 10:36:53;;;;;;;4.70;2.50;;;;;;;;;;5059194;28;20053;-78
2023/07/27 10:39:23;;;;;;;5.00;2.53;;;;;;;;;;5055272;28;20047;-78
2023/07/27 10:42:06;;;;;;;5.72;3.00;;;;;;;;;;5056913;28;20041;-78
2023/07/27 10:44:49;;;;;;;5.47;2.83;;;;;;;;;;5054795;28;20060;-77
2023/07/27 10:47:37;;;;;;;5.03;2.80;;;;;;;;;;5056146;28;20056;-78
2023/07/27 10:50:03;;;;;;;5.85;3.10;;;;;;;;;;5056050;28;20056;-78
2023/07/27 10:52:37;;;;;;;4.97;3.05;;;;;;;;;;5056121;28;20103;-78
2023/07/27 10:55:05;;;;;;;4.72;3.22;;;;;;;;;;5056479;28;20044;-78
2023/07/27 10:57:32;;;;;;;4.80;3.38;;;;;;;;;;5040444;28;20446;-78
2023/07/27 10:59:58;;;;;;;5.65;3.65;;;;;;;;;;5035485;28;20048;-77
2023/07/27 11:02:25;;;;;;;5.47;3.50;;;;;;;;;;5036572;28;20046;-79
2023/07/27 11:04:52;;;;;;;5.63;4.18;;;;;;;;;;5036324;28;20103;-76
2023/07/27 11:07:28;;;;;;;5.40;3.95;;;;;;;;;;5046062;28;20045;-78
2023/07/27 11:09:54;;;;;;;5.25;4.03;;;;;;;;;;5036342;28;20068;-78
2023/07/27 11:12:21;;;;;;;5.85;4.22;;;;;;;;;;5040369;28;20534;-78
2023/07/27 11:14:47;;;;;;;6.45;4.88;;;;;;;;;;5037760;28;20095;-78
2023/07/27 11:17:13;;;;;;;5.57;4.70;;;;;;;;;;5055292;28;20045;-78
2023/07/27 11:19:39;;;;;;;6.47;5.00;;;;;;;;;;5055049;28;20040;-78
2023/07/27 11:22:05;;;;;;;5.90;4.40;;;;;;;;;;5054346;28;20045;-78
2023/07/27 11:24:32;;;;;;;4.85;3.40;;;;;;;;;;5037177;28;20380;-78
2023/07/27 11:26:58;;;;;;;6.30;4.60;;;;;;;;;;5055046;28;20124;-78
2023/07/27 11:29:24;;;;;;;6.35;4.60;;;;;;;;;;5054954;28;20049;-77
2023/07/27 11:32:00;;;;;;;6.43;4.90;;;;;;;;;;5054683;28;20045;-78
2023/07/27 11:34:27;;;;;;;7.65;4.97;;;;;;;;;;5054665;28;20048;-78
2023/07/27 11:37:00;;;;;;;6.03;4.88;;;;;;;;;;5053989;28;20041;-78
2023/07/27 11:39:26;;;;;;;5.40;4.63;;;;;;;;;;5055149;28;20423;-79
2023/07/27 11:41:53;;;;;;;8.30;5.50;;;;;;;;;;5051725;28;20513;-78
2023/07/27 11:44:20;;;;;;;5.97;4.70;;;;;;;;;;5031103;28;20514;-78
2023/07/27 11:46:47;;;;;;;5.32;4.18;;;;;;;;;;5048012;28;20406;-78
2023/07/27 11:49:14;;;;;;;5.30;3.95;;;;;;;;;;5051384;28;20147;-78
2023/07/27 11:51:40;;;;;;;4.82;3.28;;;;;;;;;;5048715;28;20049;-78
2023/07/27 11:54:07;;;;;;;5.00;3.08;;;;;;;;;;5049265;28;20049;-78
2023/07/27 11:56:34;;;;;;;4.40;2.40;;;;;;;;;;5051235;28;20080;-78
2023/07/27 11:59:00;;;;;;;5.18;2.00;;;;;;;;;;5040330;28;20552;-78
2023/07/27 12:01:27;;;;;;;6.68;2.10;;;;;;;;;;5033937;28;20042;-78
2023/07/27 12:03:54;;;;;;;2.70;1.50;;;;;;;;;;5033414;28;20392;-79
2023/07/27 12:06:28;;;;;;;3.85;1.70;;;;;;;;;;5033960;28;20130;-78
2023/07/27 12:08:55;;;;;;;2.90;1.45;;;;;;;;;;5034411;28;20046;-78
2023/07/27 12:11:29;;;;;;;3.85;1.65;;;;;;;;;;5045193;28;20080;-78
2023/07/27 12:13:55;;;;;;;2.60;1.27;;;;;;;;;;5052734;28;20471;-78
2023/07/27 12:16:21;;;;;;;2.40;1.30;;;;;;;;;;5049667;28;20045;-81
2023/07/27 12:18:47;;;;;;;3.65;1.30;;;;;;;;;;5053421;28;20099;-78
2023/07/27 12:21:14;;;;;;;2.83;1.25;;;;;;;;;;5049733;28;20052;-78
2023/07/27 12:23:40;;;;;;;2.45;1.10;;;;;;;;;;5054501;28;20404;-78
2023/07/27 12:26:09;;;;;;;2.78;1.52;;;;;;;;;;5054481;28;20072;-79
2023/07/27 12:28:35;;;;;;;4.07;1.50;;;;;;;;;;5054165;28;20041;-79
2023/07/27 12:31:01;;;;;;;3.25;1.50;;;;;;;;;;5054541;28;20041;-78
2023/07/27 12:33:28;;;;;;;3.92;1.73;;;;;;;;;;5035702;28;20403;-78
2023/07/27 12:35:54;;;;;;;3.85;1.50;;;;;;;;;;5054446;28;20072;-78
2023/07/27 12:38:20;;;;;;;4.88;1.40;;;;;;;;;;5054401;28;20102;-78
2023/07/27 12:40:48;;;;;;;3.97;1.90;;;;;;;;;;5053408;28;20044;-78
2023/07/27 12:43:15;;;;;;;4.40;1.90;;;;;;;;;;5035670;28;20041;-78
2023/07/27 12:45:41;;;;;;;2.80;1.50;;;;;;;;;;5054203;28;20187;-78
2023/07/27 12:48:07;;;;;;;3.08;1.67;;;;;;;;;;5053476;28;20410;-78
2023/07/27 12:50:34;;;;;;;3.80;1.75;;;;;;;;;;5053784;28;20403;-79
2023/07/27 12:53:00;;;;;;;3.97;2.00;;;;;;;;;;5054863;28;20507;-79
2023/07/27 12:55:26;;;;;;;3.97;2.03;;;;;;;;;;5058700;28;20144;-79
2023/07/27 12:57:52;;;;;;;5.80;1.88;;;;;;;;;;5058109;28;20045;-79
2023/07/27 13:00:19;;;;;;;4.03;1.80;;;;;;;;;;5057665;28;20053;-79
2023/07/27 13:02:46;;;;;;;3.10;1.70;;;;;;;;;;5055755;28;20072;-79
2023/07/27 13:05:16;;;;;;;4.22;1.73;;;;;;;;;;5053598;28;20174;-79
2023/07/27 13:07:43;;;;;;;5.17;1.83;;;;;;;;;;5052383;28;20407;-79
2023/07/27 13:10:10;;;;;;;3.92;1.83;;;;;;;;;;5053630;28;20132;-79
2023/07/27 13:12:36;;;;;;;4.25;1.80;;;;;;;;;;5055583;28;20055;-79
2023/07/27 13:15:02;;;;;;;3.53;1.33;;;;;;;;;;5053782;28;20045;-79
2023/07/27 13:17:29;;;;;;;2.95;1.40;;;;;;;;;;5054238;28;20048;-79
2023/07/27 13:19:56;;;;;;;3.63;1.60;;;;;;;;;;5054041;28;20337;-79
2023/07/27 13:22:22;;;;;;;3.25;1.60;;;;;;;;;;5055545;28;20262;-79
2023/07/27 13:24:48;;;;;;;4.15;1.40;;;;;;;;;;5056848;28;20399;-79
2023/07/27 13:27:14;;;;;;;2.78;1.52;;;;;;;;;;5058708;28;20041;-79
2023/07/27 13:29:41;;;;;;;2.53;1.42;;;;;;;;;;5061065;28;20045;-79
2023/07/27 13:32:07;;;;;;;3.10;1.40;;;;;;;;;;5043454;28;20052;-79
2023/07/27 13:34:33;;;;;;;2.72;1.33;;;;;;;;;;5028860;28;20051;-79
2023/07/27 13:37:02;;;;;;;2.75;1.23;;;;;;;;;;5062833;28;20049;-79
2023/07/27 13:39:29;;;;;;;2.30;1.20;;;;;;;;;;5040636;28;20455;-78
2023/07/27 13:41:55;;;;;;;2.55;1.30;;;;;;;;;;5056260;28;20071;-79
2023/07/27 13:44:21;;;;;;;1.67;0.93;;;;;;;;;;5043456;28;20041;-78
2023/07/27 13:46:47;;;;;;;1.60;1.00;;;;;;;;;;5062200;28;20140;-79
2023/07/27 13:49:13;;;;;;;3.00;1.10;;;;;;;;;;5060964;28;20121;-79
2023/07/27 13:51:39;;;;;;;1.25;0.70;;;;;;;;;;5062912;28;20047;-79
2023/07/27 13:54:05;;;;;;;2.15;1.00;;;;;;;;;;5054665;28;20064;-78
2023/07/27 13:56:31;;;;;;;2.05;0.90;;;;;;;;;;5039424;28;20041;-79
2023/07/27 13:58:57;;;;;;;1.30;0.70;;;;;;;;;;5022075;28;20049;-78
2023/07/27 14:01:23;;;;;;;1.30;0.70;;;;;;;;;;5040512;28;20057;-79
2023/07/27 14:03:49;;;;;;;1.77;0.80;;;;;;;;;;5059590;28;20045;-79
2023/07/27 14:06:16;;;;;;;1.45;0.70;;;;;;;;;;5059865;28;20056;-79
2023/07/27 14:08:42;;;;;;;1.10;0.73;;;;;;;;;;5059293;28;20105;-78
2023/07/27 14:11:09;;;;;;;1.10;0.70;;;;;;;;;;5064321;28;20052;-79
2023/07/27 14:13:35;;;;;;;0.98;0.55;;;;;;;;;;5063010;28;20470;-79
2023/07/27 14:16:02;;;;;;;0.95;0.60;;;;;;;;;;5050007;28;20045;-79
2023/07/27 14:18:28;;;;;;;2.03;0.60;;;;;;;;;;5042563;28;20050;-78
2023/07/27 14:20:54;;;;;;;1.98;0.60;;;;;;;;;;5047157;28;20068;-78
2023/07/27 14:23:20;;;;;;;1.13;0.60;;;;;;;;;;5054782;28;20041;-78
2023/07/27 14:25:46;;;;;;;0.85;0.40;;;;;;;;;;5067233;28;20105;-78
2023/07/27 14:28:12;;;;;;;1.15;0.40;;;;;;;;;;5067117;28;20111;-79
2023/07/27 14:30:38;;;;;;;1.33;0.50;;;;;;;;;;5068052;28;20111;-79
2023/07/27 14:33:04;;;;;;;0.80;0.40;;;;;;;;;;5067150;28;20049;-79
2023/07/27 14:35:30;;;;;;;0.65;0.40;;;;;;;;;;5067790;28;20057;-79